Time;durP1;ratioP1;P1;durP2;ratioP2;P2;SDS_P1;SDS_P2;PMS_P1;PMS_P2;Temp;Humidity;BMP_temperature;BMP_pressure;BME280_temperature;BME280_humidity;BME280_pressure;Samples;Min_cycle;Max_cycle;Signal;HPM_P1;HPM_P2
2023/08/02 00:02:15;;;;;;;;;;;;;;;19.41;78.92;94574.09;5137061;27;959;-61
2023/08/02 00:04:42;;;;;;;;;;;;;;;19.42;78.99;94583.06;5137052;27;1103;-61
2023/08/02 00:07:08;;;;;;;;;;;;;;;19.38;79.87;94588.09;5137007;27;1011;-62
2023/08/02 00:09:34;;;;;;;;;;;;;;;19.22;79.74;94588.75;5136866;27;1043;-62
2023/08/02 00:12:00;;;;;;;;;;;;;;;19.12;79.46;94589.28;5137247;27;1023;-61
2023/08/02 00:14:26;;;;;;;;;;;;;;;19.05;79.87;94602.09;5136877;27;1918;-61
2023/08/02 00:16:52;;;;;;;;;;;;;;;19.24;79.45;94595.59;5136726;27;1036;-61
2023/08/02 00:19:18;;;;;;;;;;;;;;;19.45;78.62;94598.88;5136764;27;1031;-61
2023/08/02 00:21:44;;;;;;;;;;;;;;;19.40;79.35;94602.25;5136947;27;1082;-61
2023/08/02 00:24:10;;;;;;;;;;;;;;;19.15;79.72;94575.28;5117248;27;2598;-62
2023/08/02 00:26:36;;;;;;;;;;;;;;;19.40;79.87;94607.66;5116063;28;1080;-61
2023/08/02 00:29:02;;;;;;;;;;;;;;;19.49;79.07;94609.00;5121915;27;1165;-62
2023/08/02 00:31:28;;;;;;;;;;;;;;;19.65;78.26;94609.41;5136611;27;968;-62
2023/08/02 00:33:54;;;;;;;;;;;;;;;19.70;77.60;94612.28;5136223;27;1913;-62
2023/08/02 00:36:20;;;;;;;;;;;;;;;19.57;79.02;94609.75;5136402;27;977;-61
2023/08/02 00:38:46;;;;;;;;;;;;;;;19.43;80.03;94615.34;5136687;27;981;-61
2023/08/02 00:41:12;;;;;;;;;;;;;;;19.48;80.76;94609.22;5136229;27;1063;-61
2023/08/02 00:43:39;;;;;;;;;;;;;;;19.43;80.53;94606.41;5136349;27;969;-62
2023/08/02 00:46:06;;;;;;;;;;;;;;;19.27;81.40;94615.97;5136533;27;987;-62
2023/08/02 00:48:33;;;;;;;;;;;;;;;19.10;82.34;94613.06;5136066;27;1035;-62
2023/08/02 00:50:59;;;;;;;;;;;;;;;19.07;82.28;94619.78;5136409;27;1006;-62
2023/08/02 00:53:25;;;;;;;;;;;;;;;19.09;82.29;94616.84;5136193;27;1999;-62
2023/08/02 00:55:51;;;;;;;;;;;;;;;19.23;81.66;94606.66;5135989;27;1134;-62
2023/08/02 00:58:17;;;;;;;;;;;;;;;19.39;81.05;94611.44;5136128;27;1032;-62
2023/08/02 01:00:43;;;;;;;;;;;;;;;19.35;81.46;94610.25;5136068;27;1010;-62
2023/08/02 01:03:09;;;;;;;;;;;;;;;19.45;80.96;94604.28;5135954;27;979;-62
2023/08/02 01:05:39;;;;;;;;;;;;;;;19.51;81.08;94612.31;5136105;27;1051;-62
2023/08/02 01:08:07;;;;;;;;;;;;;;;19.51;81.92;94604.19;5136103;27;1213;-62
2023/08/02 01:10:39;;;;;;;;;;;;;;;19.34;81.93;94607.78;5135815;27;1038;-62
2023/08/02 01:13:07;;;;;;;;;;;;;;;19.36;81.51;94611.09;5117439;27;1966;-62
2023/08/02 01:15:33;;;;;;;;;;;;;;;19.46;80.31;94606.78;5135852;27;995;-62
2023/08/02 01:18:00;;;;;;;;;;;;;;;19.29;81.20;94608.44;5135674;27;1059;-62
2023/08/02 01:20:26;;;;;;;;;;;;;;;19.39;80.46;94611.44;5135419;27;1130;-62
2023/08/02 01:22:52;;;;;;;;;;;;;;;19.44;80.62;94622.41;5135467;27;1044;-62
2023/08/02 01:25:18;;;;;;;;;;;;;;;19.56;80.18;94625.19;5135340;27;1032;-62
2023/08/02 01:27:48;;;;;;;;;;;;;;;19.57;80.17;94613.28;5135680;27;976;-61
2023/08/02 01:30:16;;;;;;;;;;;;;;;19.24;81.59;94603.72;5119046;27;1196;-62
2023/08/02 01:32:42;;;;;;;;;;;;;;;19.12;82.32;94610.94;5114982;28;979;-62
2023/08/02 01:35:08;;;;;;;;;;;;;;;19.29;81.07;94608.44;5114596;28;1100;-62
2023/08/02 01:37:35;;;;;;;;;;;;;;;19.45;79.97;94604.28;5114561;28;1024;-61
2023/08/02 01:40:02;;;;;;;;;;;;;;;19.60;78.60;94601.16;5114546;28;989;-61
2023/08/02 01:42:28;;;;;;;;;;;;;;;19.48;79.32;94592.97;5113931;28;1048;-62
2023/08/02 01:44:54;;;;;;;;;;;;;;;19.23;80.87;94590.41;5114816;28;1046;-62
2023/08/02 01:47:20;;;;;;;;;;;;;;;19.18;81.22;94593.81;5114403;28;1007;-62
2023/08/02 01:49:46;;;;;;;;;;;;;;;18.90;82.42;94606.00;5114442;28;1099;-62
2023/08/02 01:52:12;;;;;;;;;;;;;;;18.67;83.55;94609.34;5114326;28;1039;-62
2023/08/02 01:54:37;;;;;;;;;;;;;;;18.58;83.34;94602.56;5114246;28;1901;-62
2023/08/02 01:57:03;;;;;;;;;;;;;;;18.50;84.25;94608.28;5114613;28;972;-62
2023/08/02 01:59:29;;;;;;;;;;;;;;;18.58;83.93;94599.88;5114149;28;1024;-62
2023/08/02 02:01:55;;;;;;;;;;;;;;;18.92;81.87;94600.38;5114512;28;1063;-62
2023/08/02 02:04:21;;;;;;;;;;;;;;;18.98;81.27;94604.88;5114122;28;1099;-62
2023/08/02 02:06:49;;;;;;;;;;;;;;;18.91;81.35;94610.38;5114348;28;969;-62
2023/08/02 02:09:15;;;;;;;;;;;;;;;18.82;82.61;94614.44;5095950;28;978;-62
2023/08/02 02:11:41;;;;;;;;;;;;;;;18.47;84.33;94616.84;5114402;28;1067;-61
2023/08/02 02:14:07;;;;;;;;;;;;;;;18.45;84.77;94618.94;5114247;28;1991;-61
2023/08/02 02:16:33;;;;;;;;;;;;;;;18.82;81.98;94619.00;5114222;28;967;-61
2023/08/02 02:18:59;;;;;;;;;;;;;;;18.90;81.36;94614.13;5114309;28;1049;-61
2023/08/02 02:21:25;;;;;;;;;;;;;;;18.62;82.56;94620.03;5114106;28;1053;-62
2023/08/02 02:23:51;;;;;;;;;;;;;;;18.19;84.97;94623.53;5113939;28;1119;-61
2023/08/02 02:26:17;;;;;;;;;;;;;;;18.18;84.22;94621.91;5113974;28;977;-61
2023/08/02 02:28:42;;;;;;;;;;;;;;;18.30;84.08;94635.53;5114076;28;1208;-61
2023/08/02 02:31:08;;;;;;;;;;;;;;;18.14;84.79;94635.03;5096081;28;1041;-62
2023/08/02 02:33:34;;;;;;;;;;;;;;;18.08;85.23;94638.63;5114301;27;1905;-62
2023/08/02 02:36:03;;;;;;;;;;;;;;;18.25;84.22;94640.75;5134602;28;995;-61
2023/08/02 02:38:31;;;;;;;;;;;;;;;18.16;84.61;94639.41;5134571;28;1032;-61
2023/08/02 02:40:57;;;;;;;;;;;;;;;17.88;85.67;94644.16;5134585;28;1054;-62
2023/08/02 02:43:23;;;;;;;;;;;;;;;18.17;84.11;94646.47;5134463;28;972;-62
2023/08/02 02:45:49;;;;;;;;;;;;;;;18.13;84.80;94644.19;5134178;28;1044;-59
2023/08/02 02:48:15;;;;;;;;;;;;;;;17.99;85.03;94644.53;5134106;28;1127;-62
2023/08/02 02:50:40;;;;;;;;;;;;;;;17.79;86.13;94650.84;5134427;28;1049;-61
2023/08/02 02:53:06;;;;;;;;;;;;;;;17.65;86.56;94644.72;5134415;28;1991;-61
2023/08/02 02:55:32;;;;;;;;;;;;;;;17.56;87.18;94654.94;5136164;27;1044;-61
2023/08/02 02:57:58;;;;;;;;;;;;;;;17.65;86.66;94649.31;5121613;27;1325;-63
2023/08/02 03:00:24;;;;;;;;;;;;;;;18.07;83.70;94639.66;5117701;28;954;-63
2023/08/02 03:02:50;;;;;;;;;;;;;;;18.13;83.81;94637.97;5117672;28;1111;-66
2023/08/02 03:05:16;;;;;;;;;;;;;;;18.16;83.56;94642.94;5117771;28;1058;-63
2023/08/02 03:07:42;;;;;;;;;;;;;;;17.86;84.90;94654.38;5117863;28;953;-63
2023/08/02 03:10:08;;;;;;;;;;;;;;;17.89;84.95;94645.84;5117826;28;1005;-63
2023/08/02 03:12:34;;;;;;;;;;;;;;;18.17;82.83;94632.94;5117396;28;1040;-62
2023/08/02 03:15:00;;;;;;;;;;;;;;;18.03;83.95;94641.16;5117405;28;1980;-62
2023/08/02 03:17:27;;;;;;;;;;;;;;;17.86;84.38;94648.16;5117286;28;1044;-63
2023/08/02 03:19:53;;;;;;;;;;;;;;;17.81;85.15;94653.34;5117266;28;1075;-63
2023/08/02 03:22:19;;;;;;;;;;;;;;;17.89;85.41;94653.09;5117255;28;1115;-63
2023/08/02 03:24:45;;;;;;;;;;;;;;;17.61;85.76;94662.41;5117367;28;1004;-61
2023/08/02 03:27:11;;;;;;;;;;;;;;;17.59;86.10;94661.00;5117129;28;1114;-60
2023/08/02 03:29:37;;;;;;;;;;;;;;;17.71;85.58;94654.66;5128074;27;1209;-60
2023/08/02 03:32:03;;;;;;;;;;;;;;;17.68;85.70;94652.41;5137556;27;1090;-60
2023/08/02 03:34:29;;;;;;;;;;;;;;;17.60;86.22;94663.44;5137432;27;2266;-60
2023/08/02 03:36:55;;;;;;;;;;;;;;;17.60;86.39;94666.16;5137819;27;948;-58
2023/08/02 03:39:21;;;;;;;;;;;;;;;18.00;84.00;94659.69;5137719;27;1115;-59
2023/08/02 03:41:47;;;;;;;;;;;;;;;17.83;84.94;94656.66;5137421;27;976;-60
2023/08/02 03:44:12;;;;;;;;;;;;;;;17.92;84.74;94666.19;5137372;27;965;-60
2023/08/02 03:46:38;;;;;;;;;;;;;;;18.01;84.98;94664.91;5137590;27;992;-59
2023/08/02 03:49:04;;;;;;;;;;;;;;;17.99;84.89;94672.41;5137513;27;969;-59
2023/08/02 03:51:30;;;;;;;;;;;;;;;17.91;85.18;94672.69;5137360;27;973;-59
2023/08/02 03:53:57;;;;;;;;;;;;;;;18.01;84.24;94674.91;5137489;27;1988;-59
2023/08/02 03:56:22;;;;;;;;;;;;;;;17.84;85.57;94675.41;5137387;27;937;-59
2023/08/02 03:58:49;;;;;;;;;;;;;;;17.62;87.05;94666.75;5137102;27;1040;-58
2023/08/02 04:01:15;;;;;;;;;;;;;;;17.64;86.59;94666.56;5137060;27;1022;-60
2023/08/02 04:03:41;;;;;;;;;;;;;;;17.86;85.85;94664.38;5137348;27;961;-59
2023/08/02 04:06:07;;;;;;;;;;;;;;;17.94;86.37;94664.09;5136684;27;984;-60
2023/08/02 04:08:33;;;;;;;;;;;;;;;18.02;86.40;94658.44;5136784;27;1320;-60
2023/08/02 04:11:04;;;;;;;;;;;;;;;18.05;87.06;94668.81;5137033;27;1042;-61
2023/08/02 04:13:30;;;;;;;;;;;;;;;18.13;87.12;94675.84;5136704;27;1981;-60
2023/08/02 04:15:56;;;;;;;;;;;;;;;18.04;86.71;94669.03;5136756;27;917;-60
2023/08/02 04:18:22;;;;;;;;;;;;;;;18.03;87.90;94665.50;5136871;27;968;-61
2023/08/02 04:20:48;;;;;;;;;;;;;;;18.32;86.71;94666.72;5136829;27;1055;-57
2023/08/02 04:23:14;;;;;;;;;;;;;;;18.54;85.21;94667.16;5136589;27;1570;-61
2023/08/02 04:25:40;;;;;;;;;;;;;;;18.71;85.53;94663.91;5136616;27;1024;-61
2023/08/02 04:28:06;;;;;;;;;;;;;;;18.83;86.20;94666.72;5118453;27;973;-61
2023/08/02 04:30:32;;;;;;;;;;;;;;;18.89;85.42;94672.09;5136614;27;1290;-62
2023/08/02 04:32:58;;;;;;;;;;;;;;;18.78;86.69;94675.50;5136607;27;1909;-61
2023/08/02 04:35:24;;;;;;;;;;;;;;;18.84;86.04;94684.63;5136173;27;1106;-60
2023/08/02 04:37:50;;;;;;;;;;;;;;;18.84;86.13;94674.63;5136640;27;1211;-61
2023/08/02 04:40:16;;;;;;;;;;;;;;;18.92;84.50;94665.38;5136381;27;1048;-62
2023/08/02 04:42:42;;;;;;;;;;;;;;;18.91;85.58;94675.38;5136260;27;1857;-62
2023/08/02 04:45:08;;;;;;;;;;;;;;;18.98;84.10;94680.72;5136119;27;1845;-63
2023/08/02 04:47:34;;;;;;;;;;;;;;;19.13;84.12;94676.81;5136049;27;1055;-63
2023/08/02 04:50:00;;;;;;;;;;;;;;;19.16;84.99;94682.63;5136085;27;1091;-63
2023/08/02 04:52:26;;;;;;;;;;;;;;;19.34;85.58;94691.81;5136326;27;968;-64
2023/08/02 04:54:52;;;;;;;;;;;;;;;19.50;85.04;94685.75;5136219;27;1996;-64
2023/08/02 04:57:18;;;;;;;;;;;;;;;19.61;84.72;94681.44;5136221;27;965;-64
2023/08/02 04:59:44;;;;;;;;;;;;;;;19.68;83.80;94703.88;5135879;27;1032;-63
2023/08/02 05:02:10;;;;;;;;;;;;;;;19.72;83.99;94701.53;5136011;27;1007;-63
2023/08/02 05:04:36;;;;;;;;;;;;;;;19.86;82.19;94708.47;5135957;27;977;-60
2023/08/02 05:07:02;;;;;;;;;;;;;;;19.81;82.93;94708.34;5136019;27;1076;-62
2023/08/02 05:09:28;;;;;;;;;;;;;;;19.79;82.13;94708.56;5135577;27;1036;-62
2023/08/02 05:11:55;;;;;;;;;;;;;;;19.79;82.44;94707.75;5135959;27;1099;-62
2023/08/02 05:14:21;;;;;;;;;;;;;;;19.67;82.00;94708.50;5135334;27;1906;-62
2023/08/02 05:16:47;;;;;;;;;;;;;;;19.65;81.52;94705.19;5117179;27;1087;-62
2023/08/02 05:19:13;;;;;;;;;;;;;;;19.72;82.04;94696.13;5134953;27;1015;-62
2023/08/02 05:21:40;;;;;;;;;;;;;;;19.69;83.56;94703.66;5135427;27;1042;-62
2023/08/02 05:24:05;;;;;;;;;;;;;;;19.72;83.86;94706.97;5135757;27;1027;-62
2023/08/02 05:26:31;;;;;;;;;;;;;;;19.72;84.89;94707.81;5135281;27;1087;-61
2023/08/02 05:28:57;;;;;;;;;;;;;;;19.72;83.78;94717.81;5129946;27;1165;-61
2023/08/02 05:31:23;;;;;;;;;;;;;;;19.73;84.13;94724.91;5115035;28;987;-61
2023/08/02 05:33:49;;;;;;;;;;;;;;;19.78;81.89;94720.47;5114483;28;1988;-63
2023/08/02 05:36:16;;;;;;;;;;;;;;;19.90;81.21;94715.09;5114662;28;1111;-62
2023/08/02 05:38:42;;;;;;;;;;;;;;;20.09;78.01;94718.59;5114634;28;1135;-62
2023/08/02 05:41:08;;;;;;;;;;;;;;;20.24;78.77;94719.00;5114729;28;1028;-63
2023/08/02 05:43:34;;;;;;;;;;;;;;;20.19;79.04;94718.03;5114362;28;1024;-63
2023/08/02 05:46:00;;;;;;;;;;;;;;;20.28;77.23;94708.50;5114395;28;974;-59
2023/08/02 05:48:27;;;;;;;;;;;;;;;20.32;79.44;94704.25;5114297;28;1172;-60
2023/08/02 05:50:52;;;;;;;;;;;;;;;20.60;79.47;94705.50;5114302;28;914;-60
2023/08/02 05:53:18;;;;;;;;;;;;;;;20.81;78.70;94710.38;5114110;28;1905;-60
2023/08/02 05:55:44;;;;;;;;;;;;;;;21.06;78.16;94712.84;5114867;28;1033;-60
2023/08/02 05:58:11;;;;;;;;;;;;;;;21.05;78.50;94711.19;5114147;28;1021;-60
2023/08/02 06:00:37;;;;;;;;;;;;;;;21.33;76.80;94709.63;5114113;28;975;-57
2023/08/02 06:03:03;;;;;;;;;;;;;;;21.75;77.12;94720.31;5114435;28;1037;-60
2023/08/02 06:05:29;;;;;;;;;;;;;;;21.99;76.05;94715.63;5114254;28;1016;-61
2023/08/02 06:07:55;;;;;;;;;;;;;;;22.27;76.75;94724.91;5114224;28;1019;-60
2023/08/02 06:10:21;;;;;;;;;;;;;;;22.42;75.53;94730.63;5114295;28;980;-61
2023/08/02 06:12:48;;;;;;;;;;;;;;;22.54;73.85;94733.25;5114078;28;1015;-60
2023/08/02 06:15:14;;;;;;;;;;;;;;;22.52;74.13;94729.09;5114167;28;1980;-60
2023/08/02 06:17:40;;;;;;;;;;;;;;;22.84;73.70;94720.38;5113969;28;1092;-60
2023/08/02 06:20:07;;;;;;;;;;;;;;;22.80;72.55;94720.03;5114140;28;1019;-60
2023/08/02 06:22:33;;;;;;;;;;;;;;;22.88;71.21;94722.38;5113944;28;1084;-60
2023/08/02 06:24:58;;;;;;;;;;;;;;;22.81;71.57;94717.06;5114258;28;1014;-60
2023/08/02 06:27:24;;;;;;;;;;;;;;;23.14;70.73;94711.88;5113825;28;1073;-60
2023/08/02 06:29:51;;;;;;;;;;;;;;;23.51;67.87;94720.31;5113595;28;1213;-60
2023/08/02 06:32:17;;;;;;;;;;;;;;;23.82;66.42;94709.81;5113926;28;969;-57
2023/08/02 06:34:42;;;;;;;;;;;;;;;23.91;65.16;94707.47;5124199;27;2012;-58
2023/08/02 06:37:09;;;;;;;;;;;;;;;24.29;65.42;94698.31;5134497;28;1060;-58
2023/08/02 06:39:35;;;;;;;;;;;;;;;24.58;64.39;94703.50;5134196;28;1051;-59
2023/08/02 06:42:00;;;;;;;;;;;;;;;24.20;67.39;94697.13;5134587;28;1044;-58
2023/08/02 06:44:26;;;;;;;;;;;;;;;23.94;68.38;94705.03;5134088;28;985;-58
2023/08/02 06:46:52;;;;;;;;;;;;;;;24.27;67.67;94705.94;5134454;28;1000;-58
2023/08/02 06:49:18;;;;;;;;;;;;;;;24.52;65.43;94710.03;5134150;28;1047;-59
2023/08/02 06:51:44;;;;;;;;;;;;;;;24.42;65.49;94710.72;5134451;28;985;-58
2023/08/02 06:54:12;;;;;;;;;;;;;;;24.45;67.09;94721.13;5134130;28;1914;-59
2023/08/02 06:56:38;;;;;;;;;;;;;;;24.28;67.34;94718.53;5134085;28;1099;-59
2023/08/02 06:59:04;;;;;;;;;;;;;;;24.32;66.41;94722.38;5133984;28;1047;-59
2023/08/02 07:01:30;;;;;;;;;;;;;;;24.79;65.66;94728.28;5134196;28;1028;-60
2023/08/02 07:03:56;;;;;;;;;;;;;;;25.10;64.37;94718.44;5134063;28;1095;-59
2023/08/02 07:06:21;;;;;;;;;;;;;;;25.42;61.83;94717.56;5133995;28;1088;-60
2023/08/02 07:08:48;;;;;;;;;;;;;;;25.53;63.40;94713.78;5132559;28;2787;-62
2023/08/02 07:11:15;;;;;;;;;;;;;;;25.35;62.50;94715.06;5133986;28;1052;-61
2023/08/02 07:13:44;;;;;;;;;;;;;;;25.58;61.20;94721.22;5133911;28;1914;-59
2023/08/02 07:16:10;;;;;;;;;;;;;;;25.88;59.59;94720.53;5134184;28;1019;-59
2023/08/02 07:18:37;;;;;;;;;;;;;;;26.20;58.06;94720.41;5134176;28;977;-58
2023/08/02 07:21:07;;;;;;;;;;;;;;;26.32;58.72;94716.59;5133934;28;1115;-59
2023/08/02 07:23:33;;;;;;;;;;;;;;;26.49;57.90;94712.50;5134106;28;1031;-58
2023/08/02 07:25:59;;;;;;;;;;;;;;;26.58;57.93;94715.53;5134123;28;1047;-58
2023/08/02 07:28:25;;;;;;;;;;;;;;;26.56;58.38;94720.47;5134057;28;1157;-59
2023/08/02 07:30:51;;;;;;;;;;;;;;;26.71;57.56;94713.38;5133793;28;1963;-59
2023/08/02 07:33:17;;;;;;;;;;;;;;;26.83;55.59;94716.69;5133828;28;1984;-58
2023/08/02 07:35:46;;;;;;;;;;;;;;;27.02;55.08;94708.72;5133668;27;1072;-58
2023/08/02 07:38:15;;;;;;;;;;;;;;;27.00;56.23;94711.75;5133815;28;1063;-58
2023/08/02 07:40:43;;;;;;;;;;;;;;;26.75;57.23;94715.31;5134094;27;1090;-59
2023/08/02 07:43:09;;;;;;;;;;;;;;;26.72;57.57;94723.25;5137559;27;1044;-58
2023/08/02 07:45:35;;;;;;;;;;;;;;;27.03;55.72;94713.09;5137395;27;1095;-58
2023/08/02 07:48:01;;;;;;;;;;;;;;;27.32;55.39;94715.28;5119335;27;1052;-58
2023/08/02 07:50:27;;;;;;;;;;;;;;;27.42;54.77;94716.09;5131062;27;1023;-60
2023/08/02 07:52:53;;;;;;;;;;;;;;;27.45;53.57;94712.81;5116812;28;1115;-61
2023/08/02 07:55:19;;;;;;;;;;;;;;;27.77;54.53;94719.03;5116490;28;1973;-60
2023/08/02 07:57:45;;;;;;;;;;;;;;;27.78;54.34;94718.75;5116903;28;1035;-60
2023/08/02 08:00:11;;;;;;;;;;;;;;;28.03;52.53;94725.28;5116745;28;1020;-60
2023/08/02 08:02:37;;;;;;;;;;;;;;;28.24;51.06;94718.56;5116592;28;1040;-60
2023/08/02 08:05:03;;;;;;;;;;;;;;;28.41;51.55;94725.63;5116692;28;1068;-60
2023/08/02 08:07:29;;;;;;;;;;;;;;;28.55;51.91;94718.44;5116491;28;1011;-60
2023/08/02 08:09:55;;;;;;;;;;;;;;;28.61;51.87;94719.22;5116376;28;905;-60
2023/08/02 08:12:21;;;;;;;;;;;;;;;28.51;51.97;94728.31;5116580;28;1036;-60
2023/08/02 08:14:47;;;;;;;;;;;;;;;28.35;51.54;94722.09;5116315;28;1964;-60
2023/08/02 08:17:13;;;;;;;;;;;;;;;28.38;51.10;94712.44;5116167;28;1115;-60
2023/08/02 08:19:39;;;;;;;;;;;;;;;28.60;51.67;94707.38;5116414;28;956;-60
2023/08/02 08:22:05;;;;;;;;;;;;;;;28.81;51.42;94699.81;5116167;28;1091;-60
2023/08/02 08:24:31;;;;;;;;;;;;;;;28.83;50.55;94696.78;5117070;27;2908;-60
2023/08/02 08:26:57;;;;;;;;;;;;;;;28.90;51.58;94697.28;5116122;28;995;-60
2023/08/02 08:29:23;;;;;;;;;;;;;;;29.08;54.34;94681.16;5124842;27;1181;-60
2023/08/02 08:31:49;;;;;;;;;;;;;;;29.36;51.82;94688.59;5125160;27;2589;-61
2023/08/02 08:34:15;;;;;;;;;;;;;;;29.52;52.84;94685.69;5115744;28;1965;-60
2023/08/02 08:36:42;;;;;;;;;;;;;;;29.63;52.09;94689.16;5116084;28;988;-60
2023/08/02 08:39:08;;;;;;;;;;;;;;;29.43;51.59;94687.47;5115920;28;1031;-60
2023/08/02 08:41:34;;;;;;;;;;;;;;;29.64;52.22;94679.81;5115748;28;1067;-60
2023/08/02 08:44:01;;;;;;;;;;;;;;;29.81;52.21;94679.38;5116035;28;1038;-61
2023/08/02 08:46:27;;;;;;;;;;;;;;;29.90;52.01;94677.56;5115655;28;1088;-60
2023/08/02 08:48:53;;;;;;;;;;;;;;;29.92;51.98;94678.94;5115823;28;1173;-60
2023/08/02 08:51:22;;;;;;;;;;;;;;;30.10;51.04;94676.50;5115558;28;1015;-60
2023/08/02 08:53:48;;;;;;;;;;;;;;;30.24;51.04;94680.19;5115514;28;1984;-62
2023/08/02 08:56:15;;;;;;;;;;;;;;;30.28;49.31;94677.63;5115257;28;1095;-59
2023/08/02 08:58:41;;;;;;;;;;;;;;;30.49;49.08;94676.25;5115596;28;1004;-60
2023/08/02 09:01:07;;;;;;;;;;;;;;;30.58;49.78;94678.34;5115688;28;1003;-60
2023/08/02 09:03:33;;;;;;;;;;;;;;;30.48;50.62;94668.28;5115480;28;1020;-60
2023/08/02 09:06:00;;;;;;;;;;;;;;;30.57;48.84;94672.00;5115404;28;1035;-60
2023/08/02 09:08:26;;;;;;;;;;;;;;;30.62;48.18;94671.09;5115526;28;1003;-60
2023/08/02 09:10:52;;;;;;;;;;;;;;;30.69;46.28;94680.63;5115481;28;962;-60
2023/08/02 09:13:26;;;;;;;;;;;;;;;30.70;46.42;94673.19;5114753;28;1988;-60
2023/08/02 09:16:07;;;;;;;;;;;;;;;30.83;46.74;94675.19;5115148;28;1048;-60
2023/08/02 09:18:43;;;;;;;;;;;;;;;30.97;46.55;94666.16;5115053;28;1028;-60
2023/08/02 09:21:12;;;;;;;;;;;;;;;30.85;46.69;94670.19;5115090;28;1062;-59
2023/08/02 09:23:38;;;;;;;;;;;;;;;30.92;46.08;94673.41;5115322;28;1026;-60
2023/08/02 09:26:14;;;;;;;;;;;;;;;30.85;47.81;94667.44;5114949;28;1068;-60
2023/08/02 09:28:40;;;;;;;;;;;;;;;30.84;44.08;94662.19;5117723;27;1184;-60
2023/08/02 09:31:13;;;;;;;;;;;;;;;30.98;44.24;94654.00;5135445;27;926;-60
2023/08/02 09:33:49;;;;;;;;;;;;;;;31.13;44.71;94659.25;5135365;27;1898;-60
2023/08/02 09:36:26;;;;;;;;;;;;;;;31.09;43.49;94658.22;5135604;27;965;-60
2023/08/02 09:39:03;;;;;;;;;;;;;;;31.20;41.54;94651.38;5123382;27;3141;-60
2023/08/02 09:41:29;;;;;;;;;;;;;;;31.24;43.59;94638.59;5114893;28;1283;-60
2023/08/02 09:43:56;;;;;;;;;;;;;;;31.26;44.85;94647.41;5114934;28;1011;-60
2023/08/02 09:46:35;;;;;;;;;;;;;;;31.29;43.58;94644.03;5114774;28;1087;-60
2023/08/02 09:49:02;;;;;;;;;;;;;;;31.37;45.09;94638.94;5114888;28;1017;-60
2023/08/02 09:51:37;;;;;;;;;;;;;;;31.41;43.88;94635.25;5116314;27;2613;-60
2023/08/02 09:54:03;;;;;;;;;;;;;;;31.23;42.12;94633.41;5114492;28;1990;-59
2023/08/02 09:56:30;;;;;;;;;;;;;;;31.39;42.71;94631.16;5114340;28;1000;-60
2023/08/02 09:58:58;;;;;;;;;;;;;;;31.30;41.83;94640.16;5114371;28;969;-59
2023/08/02 10:01:24;;;;;;;;;;;;;;;31.31;41.84;94644.56;5114509;28;1027;-59
2023/08/02 10:03:55;;;;;;;;;;;;;;;31.45;41.74;94624.41;5114046;28;1035;-59
2023/08/02 10:06:47;;;;;;;;;;;;;;;31.71;40.41;94627.53;5114171;28;1197;-60
2023/08/02 10:09:20;;;;;;;;;;;;;;;31.81;41.18;94627.31;5110394;28;1116;-59
2023/08/02 10:11:54;;;;;;;;;;;;;;;31.83;41.64;94624.22;5114465;28;1024;-59
2023/08/02 10:14:20;;;;;;;;;;;;;;;31.94;41.72;94620.13;5114235;28;1910;-60
2023/08/02 10:16:46;;;;;;;;;;;;;;;32.11;42.73;94613.97;5114079;28;1304;-59
2023/08/02 10:19:12;;;;;;;;;;;;;;;32.11;42.05;94608.47;5114087;28;1282;-60
2023/08/02 10:21:38;;;;;;;;;;;;;;;32.00;41.16;94610.59;5113977;28;1023;-59
2023/08/02 10:24:05;;;;;;;;;;;;;;;31.96;41.70;94617.06;5113911;27;2482;-60
2023/08/02 10:26:31;;;;;;;;;;;;;;;31.85;41.61;94622.81;5114415;28;2802;-57
2023/08/02 10:28:58;;;;;;;;;;;;;;;32.08;41.24;94620.13;5133744;27;2853;-57
2023/08/02 10:31:25;;;;;;;;;;;;;;;32.22;41.22;94614.59;5134654;27;1008;-58
2023/08/02 10:33:51;;;;;;;;;;;;;;;31.77;41.04;94609.69;5134135;27;1988;-57
2023/08/02 10:36:17;;;;;;;;;;;;;;;31.47;42.52;94605.63;5134282;28;1039;-57
2023/08/02 10:38:43;;;;;;;;;;;;;;;31.21;42.37;94600.56;5134303;28;1084;-57
2023/08/02 10:41:10;;;;;;;;;;;;;;;31.35;42.28;94600.56;5134342;28;1847;-56
2023/08/02 10:43:51;;;;;;;;;;;;;;;31.28;41.66;94594.63;5134650;28;1035;-58
2023/08/02 10:46:18;;;;;;;;;;;;;;;31.12;41.27;94596.88;5134163;28;1032;-60
2023/08/02 10:48:45;;;;;;;;;;;;;;;31.37;41.14;94603.03;5134320;28;1007;-60
2023/08/02 10:51:32;;;;;;;;;;;;;;;31.62;41.64;94610.84;5134444;28;969;-60
2023/08/02 10:54:21;;;;;;;;;;;;;;;31.71;41.38;94608.19;5133190;27;2493;-59
2023/08/02 10:56:53;;;;;;;;;;;;;;;31.76;41.07;94599.78;5095691;28;1051;-60
2023/08/02 10:59:22;;;;;;;;;;;;;;;31.98;42.41;94604.56;5113583;28;1035;-60
2023/08/02 11:01:58;;;;;;;;;;;;;;;32.09;41.19;94603.22;5113904;28;976;-60
2023/08/02 11:04:24;;;;;;;;;;;;;;;32.14;41.86;94605.09;5113502;28;1099;-60
2023/08/02 11:06:51;;;;;;;;;;;;;;;32.01;39.88;94608.66;5113618;28;980;-60
2023/08/02 11:09:17;;;;;;;;;;;;;;;31.94;41.34;94602.72;5113414;28;1099;-60
2023/08/02 11:11:43;;;;;;;;;;;;;;;32.23;41.63;94594.91;5113472;28;1031;-59
2023/08/02 11:14:09;;;;;;;;;;;;;;;32.37;40.88;94594.88;5113277;28;1910;-60
2023/08/02 11:16:41;;;;;;;;;;;;;;;32.26;40.18;94590.69;5078688;28;2431;-60
2023/08/02 11:19:09;;;;;;;;;;;;;;;32.25;40.75;94591.81;5117600;28;1003;-60
2023/08/02 11:21:36;;;;;;;;;;;;;;;32.24;41.04;94592.97;5117297;28;1036;-60
2023/08/02 11:24:03;;;;;;;;;;;;;;;32.25;40.05;94595.41;5117377;28;1007;-59
2023/08/02 11:26:30;;;;;;;;;;;;;;;32.39;39.16;94592.59;5117444;28;1007;-59
2023/08/02 11:28:56;;;;;;;;;;;;;;;32.36;39.17;94597.94;5122550;27;1208;-60
2023/08/02 11:31:23;;;;;;;;;;;;;;;32.43;39.79;94593.59;5137565;27;1110;-60
2023/08/02 11:33:49;;;;;;;;;;;;;;;32.42;38.39;94592.00;5137429;27;1975;-60
2023/08/02 11:36:15;;;;;;;;;;;;;;;32.30;38.44;94592.50;5137671;27;985;-59
2023/08/02 11:38:41;;;;;;;;;;;;;;;32.01;40.25;94581.03;5119360;27;1096;-59
2023/08/02 11:41:17;;;;;;;;;;;;;;;31.76;38.82;94585.13;5137808;27;949;-60
2023/08/02 11:43:44;;;;;;;;;;;;;;;31.69;39.61;94583.63;5137756;27;1032;-60
2023/08/02 11:46:13;;;;;;;;;;;;;;;31.83;39.79;94580.00;5137327;27;971;-60
2023/08/02 11:48:40;;;;;;;;;;;;;;;31.98;38.55;94576.91;5137529;27;1040;-59
2023/08/02 11:51:07;;;;;;;;;;;;;;;32.11;39.94;94572.50;5137436;27;1104;-59
2023/08/02 11:53:33;;;;;;;;;;;;;;;32.38;38.48;94562.47;5137112;27;1905;-59
2023/08/02 11:56:00;;;;;;;;;;;;;;;32.63;38.33;94567.44;5137225;27;1111;-60
2023/08/02 11:58:26;;;;;;;;;;;;;;;32.68;38.34;94556.22;5137415;27;1025;-60
2023/08/02 12:00:52;;;;;;;;;;;;;;;32.70;40.95;94555.09;5090725;27;2505;-60
2023/08/02 12:03:19;;;;;;;;;;;;;;;32.78;38.06;94557.09;5116410;28;1086;-60
2023/08/02 12:05:45;;;;;;;;;;;;;;;32.77;36.19;94575.66;5116573;28;1051;-59
2023/08/02 12:08:13;;;;;;;;;;;;;;;32.67;37.39;94567.63;5116355;28;1114;-60
2023/08/02 12:10:39;;;;;;;;;;;;;;;32.64;36.20;94573.78;5116603;28;1047;-60
2023/08/02 12:13:08;;;;;;;;;;;;;;;32.64;36.19;94573.78;5116585;28;1062;-60
2023/08/02 12:15:35;;;;;;;;;;;;;;;32.75;36.38;94568.81;5116484;28;953;-59
2023/08/02 12:18:05;;;;;;;;;;;;;;;32.63;38.12;94552.75;5116375;28;976;-59
2023/08/02 12:20:34;;;;;;;;;;;;;;;32.14;38.60;94555.31;5116188;28;1036;-60
2023/08/02 12:23:00;;;;;;;;;;;;;;;31.81;38.43;94549.91;5116085;28;1000;-60
2023/08/02 12:25:40;;;;;;;;;;;;;;;31.80;37.29;94562.13;5116335;28;969;-60
2023/08/02 12:28:07;;;;;;;;;;;;;;;31.75;38.50;94551.16;5116113;28;1003;-60
2023/08/02 12:30:33;;;;;;;;;;;;;;;31.62;37.01;94555.56;5097254;28;1141;-60
2023/08/02 12:32:59;;;;;;;;;;;;;;;31.71;37.40;94553.72;5095848;28;1055;-60
2023/08/02 12:35:25;;;;;;;;;;;;;;;32.01;36.56;94545.06;5094334;28;2279;-59
2023/08/02 12:37:51;;;;;;;;;;;;;;;32.18;36.83;94542.50;5075707;28;2919;-59
2023/08/02 12:40:17;;;;;;;;;;;;;;;32.26;38.18;94547.25;5075375;28;1059;-60
2023/08/02 12:42:43;;;;;;;;;;;;;;;32.18;37.14;94538.91;5075231;28;1076;-60
2023/08/02 12:45:09;;;;;;;;;;;;;;;32.05;36.96;94535.06;5075178;28;1011;-59
2023/08/02 12:47:35;;;;;;;;;;;;;;;31.94;37.22;94539.97;5075339;28;1044;-59
2023/08/02 12:50:01;;;;;;;;;;;;;;;32.11;37.59;94528.28;5091890;28;2970;-60
2023/08/02 12:52:27;;;;;;;;;;;;;;;32.24;37.11;94529.34;5092350;28;2521;-60
2023/08/02 12:54:55;;;;;;;;;;;;;;;32.42;35.08;94530.28;5095234;28;1987;-60
2023/08/02 12:57:21;;;;;;;;;;;;;;;32.60;35.70;94537.63;5091185;28;2495;-60
2023/08/02 12:59:48;;;;;;;;;;;;;;;32.58;35.93;94536.31;5091803;28;2915;-59